Карточка аэропорта UNNT

Внимание!
Информация на этой странице в стадии наполнения.
Если вы не увидели какой-то информации, или заметили неточность - пожалуйста сообщите нам!
Спасибо!
Команда RU-STAFF
Название аэропортаТолмачево
Название аэропорта (англ.)Tolmachevo
Превышение367 ft. (111.9 m.)
Координаты55°0.77999999999989', 82°38.178'
Высота перехода1300m
Эшелон переходаFL060
Коды ответчика5201-5227
Зона ОрВДНовосибирск РПИ (UNNT)
Данные METARUNNT 241500Z 22005MPS 9999 OVC032 04/02 Q1023 R25/190060 R34/////// NOSIG RMK QFE758/1010
Проноз погоды (TAF)UNNT 241400Z 2415/2515 23005G13MPS 8000 -SHRA BKN016CB TEMPO 2415/2504 -SHRASN BKN005 BKN016CB BECMG 2422/2501 26003G08MPS TEMPO 2504/2515 SCT010 BKN016CB BECMG 2508/2511 31003G08MPS
NOTAMshow/hide NOTAM
AWOS   TABLE

Информация о ВПП

ВПП Длина ВПП (м.) Покрытие Курс ВПП Частота ILS
073597Асфальтобетон72110.1
253597Асфальтобетон252108.5
163602Цементобетон161109.7
343602Цементобетон341111.1

Диспетчерские позиции

Позывной Наименование органа УВД Частота
UNNT_DEL Новосибирск-Деливери135.4
UNNT_GNDНовосибирск-Руление121.7
UNNT_TWRНовосибирск-Вышка118.5
UNNT_R_APPНовосибирск-Круг122.0
UNNT_APPНовосибирск-Подход127.5



Спутниковое изображение